createdAt,value
2018-05-10T00:00:15.621Z,21.50
2018-05-10T00:02:42.951Z,18.57
2018-05-10T00:05:10.701Z,20.50
2018-05-10T00:07:39.911Z,24.83
2018-05-10T00:10:07.321Z,20.17
2018-05-10T00:12:36.301Z,24.50
2018-05-10T00:15:03.912Z,28.73
2018-05-10T00:17:31.381Z,25.63
2018-05-10T00:20:00.791Z,20.53
2018-05-10T00:22:28.130Z,23.40
2018-05-10T00:24:57.361Z,21.00
2018-05-10T00:27:29.911Z,20.83
2018-05-10T00:29:57.403Z,21.30
2018-05-10T00:32:28.940Z,24.67
2018-05-10T00:34:57.214Z,25.20
2018-05-10T00:37:25.431Z,23.37
2018-05-10T00:39:52.780Z,22.30
2018-05-10T00:42:20.351Z,24.23
2018-05-10T00:44:48.872Z,22.23
2018-05-10T00:47:17.302Z,23.03
2018-05-10T00:49:45.251Z,23.77
2018-05-10T00:52:12.691Z,23.53
2018-05-10T00:54:53.897Z,22.13
2018-05-10T00:57:21.562Z,22.43
2018-05-10T00:59:53.826Z,23.47
2018-05-10T01:02:21.152Z,20.77
2018-05-10T01:04:48.785Z,19.03
2018-05-10T01:07:16.371Z,30.93
2018-05-10T01:09:48.291Z,22.80
2018-05-10T01:12:16.412Z,27.60
2018-05-10T01:14:43.846Z,18.37
2018-05-10T01:17:12.422Z,17.17
2018-05-10T01:19:40.783Z,19.87
2018-05-10T01:22:08.206Z,21.47
2018-05-10T01:24:35.892Z,24.20
2018-05-10T01:27:03.834Z,19.33
2018-05-10T01:29:31.973Z,19.90
2018-05-10T01:31:59.471Z,20.90
2018-05-10T01:34:26.982Z,22.67
2018-05-10T01:36:54.882Z,23.33
2018-05-10T01:39:23.233Z,20.87
2018-05-10T01:41:51.047Z,20.97
2018-05-10T01:44:20.882Z,22.03
2018-05-10T01:46:48.344Z,23.73
2018-05-10T01:49:16.591Z,24.73
2018-05-10T01:51:44.101Z,23.47
2018-05-10T01:54:12.653Z,23.90
2018-05-10T01:56:39.993Z,20.87
2018-05-10T01:59:08.091Z,22.73
2018-05-10T02:01:36.182Z,21.40
2018-05-10T02:04:03.881Z,22.80
2018-05-10T02:06:31.321Z,20.83
2018-05-10T02:08:59.117Z,20.50
2018-05-10T02:11:29.602Z,18.97
2018-05-10T02:13:57.161Z,18.80
2018-05-10T02:16:24.547Z,21.40
2018-05-10T02:18:53.683Z,25.87
2018-05-10T02:21:23.371Z,23.77
2018-05-10T02:23:51.711Z,25.10
2018-05-10T02:26:19.063Z,24.10
2018-05-10T02:28:48.176Z,24.77
2018-05-10T02:31:15.584Z,20.83
2018-05-10T02:33:42.953Z,24.40
2018-05-10T02:36:10.682Z,23.37
2018-05-10T02:38:38.972Z,22.77
2018-05-10T02:41:06.262Z,23.27
2018-05-10T02:43:33.972Z,30.80
2018-05-10T02:46:02.073Z,19.53
2018-05-10T02:48:29.662Z,19.97
2018-05-10T02:50:57.002Z,20.43
2018-05-10T02:53:24.683Z,41.90
2018-05-10T02:55:52.182Z,29.47
2018-05-10T02:58:19.672Z,24.00
2018-05-10T03:00:47.201Z,28.77
2018-05-10T03:03:15.742Z,44.90
2018-05-10T03:05:43.691Z,148.00
2018-05-10T03:08:11.472Z,29.27
2018-05-10T03:10:41.692Z,28.47
2018-05-10T03:13:09.302Z,24.77
2018-05-10T03:15:37.075Z,35.43
2018-05-10T03:18:04.451Z,28.30
2018-05-10T03:20:31.992Z,27.37
2018-05-10T03:22:59.257Z,34.63
2018-05-10T03:25:27.495Z,29.10
2018-05-10T03:27:55.032Z,22.03
2018-05-10T03:30:22.641Z,23.43
2018-05-10T03:32:49.829Z,74.90
2018-05-10T03:35:18.154Z,30.80
2018-05-10T03:37:45.721Z,25.33
2018-05-10T03:40:13.292Z,26.80
2018-05-10T03:42:40.822Z,36.20
2018-05-10T03:45:08.373Z,25.83
2018-05-10T03:47:36.252Z,21.13
2018-05-10T03:50:03.942Z,24.30
2018-05-10T03:52:31.312Z,28.90
2018-05-10T03:54:59.751Z,27.67
2018-05-10T03:57:27.481Z,30.20
2018-05-10T03:59:55.581Z,47.80
2018-05-10T04:05:51.722Z,24.77
2018-05-10T04:08:38.935Z,19.07
2018-05-10T04:11:34.856Z,19.30
2018-05-10T04:14:02.544Z,24.30
2018-05-10T04:16:29.942Z,23.33
2018-05-10T04:18:57.371Z,20.57
2018-05-10T04:21:25.224Z,22.03
2018-05-10T04:23:53.813Z,22.97
2018-05-10T04:26:23.651Z,19.00
2018-05-10T04:28:53.652Z,23.97
2018-05-10T04:31:21.303Z,19.13
2018-05-10T04:33:48.813Z,22.13
2018-05-10T04:36:16.262Z,17.97
2018-05-10T04:38:43.643Z,17.70
2018-05-10T04:41:11.045Z,15.20
2018-05-10T04:43:38.817Z,17.50
2018-05-10T04:46:06.302Z,15.07
2018-05-10T04:48:36.073Z,13.97
2018-05-10T04:51:03.778Z,17.97
2018-05-10T04:53:31.222Z,16.03
2018-05-10T04:55:58.802Z,17.10
2018-05-10T04:58:27.241Z,18.67
2018-05-10T05:00:55.742Z,16.60
2018-05-10T05:03:23.283Z,16.43
2018-05-10T05:05:51.253Z,17.10
2018-05-10T05:08:18.672Z,16.57
2018-05-10T05:10:47.923Z,15.33
2018-05-10T05:13:15.613Z,16.63
2018-05-10T05:15:43.093Z,16.77
2018-05-10T05:18:10.482Z,17.43
2018-05-10T05:20:38.951Z,16.23
2018-05-10T05:23:07.051Z,17.40
2018-05-10T05:25:34.351Z,16.33
2018-05-10T05:28:02.401Z,17.67
2018-05-10T05:30:29.775Z,17.33
2018-05-10T05:32:57.345Z,18.60
2018-05-10T05:35:24.903Z,16.63
2018-05-10T05:37:52.087Z,17.77
2018-05-10T05:40:19.861Z,18.20
2018-05-10T05:42:49.605Z,18.00
2018-05-10T05:45:17.041Z,18.13
2018-05-10T05:47:44.740Z,18.97
2018-05-10T05:50:12.453Z,18.73
2018-05-10T05:52:40.251Z,18.73
2018-05-10T05:55:07.725Z,18.50
2018-05-10T05:57:36.121Z,18.23
2018-05-10T06:00:03.871Z,20.23
2018-05-10T06:02:31.550Z,33.60
2018-05-10T06:04:59.805Z,24.03
2018-05-10T06:07:26.879Z,24.20
2018-05-10T06:09:55.261Z,24.83
2018-05-10T06:12:23.401Z,23.60
2018-05-10T06:14:50.832Z,19.93
2018-05-10T06:17:18.403Z,22.27
2018-05-10T06:19:45.901Z,22.80
2018-05-10T06:22:13.351Z,24.97
2018-05-10T06:24:40.955Z,18.73
2018-05-10T06:27:08.425Z,19.90
2018-05-10T06:29:36.083Z,22.77
2018-05-10T06:32:03.592Z,20.70
2018-05-10T06:34:32.194Z,22.40
2018-05-10T06:36:59.548Z,20.60
2018-05-10T06:39:27.661Z,26.73
2018-05-10T06:41:55.311Z,23.73
2018-05-10T06:44:22.853Z,22.70
2018-05-10T06:46:50.597Z,25.50
2018-05-10T06:49:18.911Z,26.30
2018-05-10T06:51:46.383Z,22.27
2018-05-10T06:54:14.151Z,23.57
2018-05-10T06:56:41.221Z,22.37
2018-05-10T06:59:08.762Z,20.40
2018-05-10T07:01:36.089Z,22.40
2018-05-10T07:04:03.952Z,22.97
2018-05-10T07:06:31.624Z,24.03
2018-05-10T07:08:59.172Z,22.97
2018-05-10T07:11:26.653Z,22.43
2018-05-10T07:13:54.172Z,25.93
2018-05-10T07:16:21.823Z,27.43
2018-05-10T07:18:49.543Z,24.50
2018-05-10T07:21:17.743Z,25.73
2018-05-10T07:23:46.302Z,25.93
2018-05-10T07:26:14.072Z,24.83
2018-05-10T07:28:41.793Z,26.73
2018-05-10T07:31:09.402Z,24.07
2018-05-10T07:33:41.192Z,28.37
2018-05-10T07:36:08.953Z,25.27
2018-05-10T07:38:36.504Z,31.03
2018-05-10T07:41:04.992Z,26.43
2018-05-10T07:43:33.903Z,28.10
2018-05-10T07:46:02.922Z,25.87
2018-05-10T07:48:31.652Z,24.97
2018-05-10T07:50:59.174Z,24.17
2018-05-10T07:53:26.832Z,26.67
2018-05-10T07:55:54.182Z,24.03
2018-05-10T07:58:21.883Z,27.17
2018-05-10T08:00:54.422Z,25.13
2018-05-10T08:03:25.202Z,24.67
2018-05-10T08:05:53.515Z,24.47
2018-05-10T08:08:22.203Z,24.30
2018-05-10T08:10:49.701Z,24.07
2018-05-10T08:13:17.802Z,25.00
2018-05-10T08:15:45.652Z,24.60
2018-05-10T08:18:13.095Z,24.33
2018-05-10T08:20:41.432Z,23.33
2018-05-10T08:23:09.091Z,24.80
2018-05-10T08:25:36.482Z,24.73
2018-05-10T08:28:04.094Z,25.50
2018-05-10T08:30:31.632Z,25.10
2018-05-10T08:32:59.312Z,24.90
2018-05-10T08:35:26.793Z,22.13
2018-05-10T08:37:54.353Z,34.30
2018-05-10T08:40:22.262Z,124.33
2018-05-10T08:42:50.799Z,19.83
2018-05-10T08:45:20.060Z,21.17
2018-05-10T08:47:49.404Z,22.47
2018-05-10T08:50:17.392Z,27.97
2018-05-10T08:52:45.713Z,21.80
2018-05-10T08:55:16.488Z,25.47
2018-05-10T08:57:44.282Z,21.00
2018-05-10T09:00:11.595Z,38.67
2018-05-10T09:02:40.293Z,24.53
2018-05-10T09:05:07.924Z,21.67
2018-05-10T09:07:35.602Z,22.87
2018-05-10T09:10:04.001Z,22.97
2018-05-10T09:12:31.702Z,24.73
2018-05-10T09:15:00.202Z,23.60
2018-05-10T09:17:27.662Z,22.53
2018-05-10T09:19:56.201Z,32.17
2018-05-10T09:22:24.072Z,24.07
2018-05-10T09:24:56.342Z,18.00
2018-05-10T09:27:24.664Z,16.87
2018-05-10T09:29:52.571Z,15.97
2018-05-10T09:32:19.752Z,15.60
2018-05-10T09:34:47.532Z,13.97
2018-05-10T09:37:16.181Z,15.90
2018-05-10T09:39:44.792Z,20.13
2018-05-10T09:42:12.812Z,14.50
2018-05-10T09:44:41.181Z,18.27
2018-05-10T09:47:12.335Z,22.17
2018-05-10T09:49:41.171Z,18.30
2018-05-10T09:52:10.302Z,17.03
2018-05-10T09:54:38.333Z,20.83
2018-05-10T09:57:06.114Z,19.27
2018-05-10T09:59:33.289Z,19.23
2018-05-10T10:02:02.613Z,17.37
2018-05-10T10:04:32.130Z,15.67
2018-05-10T10:07:00.445Z,15.40
2018-05-10T10:09:28.934Z,19.57
2018-05-10T10:11:56.411Z,17.07
2018-05-10T10:14:24.013Z,17.07
2018-05-10T10:16:52.612Z,17.20
2018-05-10T10:19:20.132Z,17.23
2018-05-10T10:21:48.092Z,12.97
2018-05-10T10:24:16.442Z,13.97
2018-05-10T10:26:45.074Z,10.53
2018-05-10T10:29:13.643Z,13.23
2018-05-10T10:31:41.342Z,11.40
2018-05-10T10:34:08.362Z,12.77
2018-05-10T10:36:35.842Z,8.77
2018-05-10T10:39:03.122Z,9.27
2018-05-10T10:41:31.646Z,10.77
2018-05-10T10:43:59.573Z,9.93
2018-05-10T10:46:27.982Z,9.03
2018-05-10T10:48:56.002Z,9.53
2018-05-10T10:51:23.733Z,7.87
2018-05-10T10:53:51.459Z,7.10
2018-05-10T10:56:20.292Z,9.77
2018-05-10T10:58:48.093Z,8.77
2018-05-10T11:01:15.542Z,6.17
2018-05-10T11:03:43.692Z,7.63
2018-05-10T11:06:12.962Z,7.43
2018-05-10T11:08:40.683Z,7.17
2018-05-10T11:11:08.652Z,5.20
2018-05-10T11:13:36.159Z,5.50
2018-05-10T11:16:05.053Z,9.10
2018-05-10T11:18:32.742Z,6.97
2018-05-10T11:21:01.102Z,6.73
2018-05-10T11:23:28.611Z,8.13
2018-05-10T11:25:56.321Z,8.90
2018-05-10T11:28:24.792Z,7.13
2018-05-10T11:30:53.181Z,8.77
2018-05-10T11:33:20.958Z,9.77
2018-05-10T11:35:48.833Z,8.37
2018-05-10T11:38:22.562Z,8.37
2018-05-10T11:40:50.487Z,10.23
2018-05-10T11:43:19.031Z,8.87
2018-05-10T11:45:49.233Z,10.03
2018-05-10T11:48:18.102Z,8.80
2018-05-10T11:50:48.122Z,16.70
2018-05-10T11:53:15.793Z,7.77
2018-05-10T11:55:43.685Z,11.07
2018-05-10T11:58:11.412Z,9.23
2018-05-10T12:00:38.972Z,6.15
2018-05-10T12:03:06.892Z,8.53
2018-05-10T12:05:35.212Z,8.63
2018-05-10T12:08:02.872Z,7.10
2018-05-10T12:10:30.483Z,8.47
2018-05-10T12:12:58.895Z,5.53
2018-05-10T12:15:26.862Z,6.70
2018-05-10T12:17:54.294Z,5.57
2018-05-10T12:20:23.106Z,5.57
2018-05-10T12:22:51.602Z,5.77
2018-05-10T12:25:20.393Z,8.80
2018-05-10T12:27:48.182Z,6.90
2018-05-10T12:30:15.325Z,4.87
2018-05-10T12:32:42.722Z,4.37
2018-05-10T12:35:11.189Z,5.22
2018-05-10T12:37:38.872Z,6.10
2018-05-10T12:40:06.354Z,7.87
2018-05-10T12:42:33.853Z,3.10
2018-05-10T12:45:01.632Z,4.33
2018-05-10T12:47:29.862Z,4.20
2018-05-10T12:49:57.372Z,3.73
2018-05-10T12:52:25.493Z,3.95
2018-05-10T12:54:53.174Z,3.23
2018-05-10T12:57:21.362Z,3.33
2018-05-10T12:59:48.771Z,3.53
2018-05-10T13:02:16.331Z,3.60
2018-05-10T13:04:44.312Z,5.37
2018-05-10T13:07:13.200Z,5.97
2018-05-10T13:09:41.023Z,3.40
2018-05-10T13:12:08.732Z,4.03
2018-05-10T13:14:37.502Z,4.80
2018-05-10T13:17:06.562Z,3.63
2018-05-10T13:19:35.192Z,3.80
2018-05-10T13:22:02.972Z,4.77
2018-05-10T13:24:32.111Z,5.07
2018-05-10T13:27:00.862Z,5.23
2018-05-10T13:29:30.261Z,3.70
2018-05-10T13:31:58.992Z,5.67
2018-05-10T13:34:27.344Z,4.73
2018-05-10T13:36:55.502Z,6.43
2018-05-10T13:39:23.522Z,4.07
2018-05-10T13:41:51.592Z,4.37
2018-05-10T13:44:20.513Z,2.87
2018-05-10T13:46:52.606Z,3.30
2018-05-10T13:49:21.072Z,6.03
2018-05-10T13:52:13.144Z,3.07
2018-05-10T13:54:46.072Z,4.27
2018-05-10T13:57:16.083Z,4.13
2018-05-10T13:59:49.578Z,3.33
2018-05-10T14:02:18.432Z,3.97
2018-05-10T14:04:47.414Z,3.20
2018-05-10T14:07:19.333Z,4.03
2018-05-10T14:10:00.551Z,5.03
2018-05-10T14:12:29.883Z,3.57
2018-05-10T14:14:57.804Z,4.47
2018-05-10T14:17:27.085Z,3.83
2018-05-10T14:19:55.090Z,4.47
2018-05-10T14:22:26.852Z,5.10
2018-05-10T14:24:54.270Z,5.27
2018-05-10T14:27:34.458Z,13.43
2018-05-10T14:33:08.625Z,14.23
2018-05-10T14:35:40.362Z,7.70
2018-05-10T14:38:08.941Z,6.23
2018-05-10T14:40:37.322Z,10.70
2018-05-10T14:43:08.821Z,17.33
2018-05-10T14:45:42.897Z,10.40
2018-05-10T14:48:29.214Z,12.37
2018-05-10T14:53:51.204Z,9.13
2018-05-10T14:56:21.020Z,9.70
2018-05-10T14:58:56.532Z,9.93
2018-05-10T15:01:39.016Z,8.33
2018-05-10T15:04:10.633Z,10.57
2018-05-10T15:06:38.621Z,6.57
2018-05-10T15:09:13.482Z,6.83
2018-05-10T15:11:54.609Z,20.33
2018-05-10T15:14:23.151Z,6.43
2018-05-10T15:17:06.204Z,12.67
2018-05-10T15:19:38.535Z,6.77
2018-05-10T15:22:09.538Z,6.30
2018-05-10T15:24:47.694Z,9.77
2018-05-10T15:27:15.786Z,7.60
2018-05-10T15:29:45.742Z,5.73
2018-05-10T15:32:22.352Z,6.70
2018-05-10T15:34:55.156Z,7.30
2018-05-10T15:37:24.021Z,6.20
2018-05-10T15:39:51.972Z,4.87
2018-05-10T15:42:22.082Z,4.80
2018-05-10T15:44:50.722Z,5.10
2018-05-10T15:47:19.402Z,5.63
2018-05-10T15:49:48.692Z,15.83
2018-05-10T15:52:16.302Z,4.63
2018-05-10T15:54:44.831Z,4.30
2018-05-10T15:57:12.522Z,3.93
2018-05-10T15:59:41.552Z,5.30
2018-05-10T16:02:11.986Z,5.13
2018-05-10T16:04:39.482Z,4.57
2018-05-10T16:07:08.224Z,4.73
2018-05-10T16:09:45.328Z,4.60
2018-05-10T16:12:14.053Z,4.90
2018-05-10T16:14:41.592Z,5.30
2018-05-10T16:17:09.141Z,4.43
2018-05-10T16:19:36.732Z,10.97
2018-05-10T16:22:04.252Z,5.20
2018-05-10T16:24:32.352Z,12.57
2018-05-10T16:27:00.062Z,6.57
2018-05-10T16:29:27.702Z,4.63
2018-05-10T16:31:57.282Z,4.80
2018-05-10T16:34:25.476Z,4.27
2018-05-10T16:36:53.052Z,4.50
2018-05-10T16:39:20.664Z,43.97
2018-05-10T16:41:48.311Z,55.60
2018-05-10T16:44:15.882Z,23.97
2018-05-10T16:46:43.551Z,6.37
2018-05-10T16:49:11.392Z,6.80
2018-05-10T16:51:39.082Z,5.37
2018-05-10T16:54:07.692Z,4.17
2018-05-10T16:56:35.341Z,4.93
2018-05-10T16:59:03.113Z,3.73
2018-05-10T17:01:31.542Z,3.40
2018-05-10T17:03:59.182Z,3.67
2018-05-10T17:06:26.932Z,4.93
2018-05-10T17:08:54.752Z,3.27
2018-05-10T17:11:23.052Z,3.13
2018-05-10T17:13:50.861Z,5.70
2018-05-10T17:16:19.351Z,3.27
2018-05-10T17:18:47.135Z,4.93
2018-05-10T17:21:14.771Z,5.87
2018-05-10T17:23:42.784Z,3.33
2018-05-10T17:26:11.332Z,3.37
2018-05-10T17:28:39.192Z,4.30
2018-05-10T17:31:09.392Z,5.20
2018-05-10T17:33:36.922Z,5.23
2018-05-10T17:36:04.581Z,3.67
2018-05-10T17:38:32.642Z,6.70
2018-05-10T17:43:56.242Z,8.47
2018-05-10T17:46:43.272Z,4.00
2018-05-10T17:49:15.472Z,3.77
2018-05-10T17:59:05.094Z,4.50
2018-05-10T18:01:34.892Z,3.80
2018-05-10T18:04:03.251Z,7.10
2018-05-10T18:06:31.082Z,4.73
2018-05-10T18:09:05.913Z,5.47
2018-05-10T18:11:33.691Z,5.43
2018-05-10T18:14:01.476Z,4.63
2018-05-10T18:16:31.122Z,4.30
2018-05-10T18:19:02.265Z,3.73
2018-05-10T18:21:30.542Z,5.80
2018-05-10T18:23:58.731Z,4.80
2018-05-10T18:26:27.294Z,5.00
2018-05-10T18:28:56.571Z,4.50
2018-05-10T18:31:26.732Z,4.07
2018-05-10T18:33:54.472Z,4.23
2018-05-10T18:36:22.102Z,6.30
2018-05-10T18:38:50.163Z,5.47
2018-05-10T18:41:18.402Z,5.90
2018-05-10T18:43:46.481Z,3.97
2018-05-10T18:46:14.182Z,3.93
2018-05-10T18:48:43.952Z,5.73
2018-05-10T18:51:12.183Z,6.20
2018-05-10T18:53:43.452Z,4.90
2018-05-10T18:56:11.102Z,5.97
2018-05-10T18:58:38.692Z,4.63
2018-05-10T19:01:06.582Z,7.10
2018-05-10T19:03:34.522Z,8.83
2018-05-10T19:06:04.724Z,5.53
2018-05-10T19:08:32.312Z,30.20
2018-05-10T19:11:00.022Z,6.63
2018-05-10T19:13:28.612Z,16.60
2018-05-10T19:15:57.724Z,8.40
2018-05-10T19:18:25.553Z,9.10
2018-05-10T19:20:55.176Z,12.47
2018-05-10T19:23:23.792Z,4.50
2018-05-10T19:25:53.412Z,4.73
2018-05-10T19:28:21.702Z,4.87
2018-05-10T19:30:51.032Z,5.43
2018-05-10T19:33:18.962Z,4.57
2018-05-10T19:35:49.713Z,5.90
2018-05-10T19:38:17.732Z,4.63
2018-05-10T19:40:45.422Z,4.00
2018-05-10T19:43:13.132Z,4.47
2018-05-10T19:45:41.639Z,4.30
2018-05-10T19:48:09.262Z,5.60
2018-05-10T19:50:37.632Z,4.77
2018-05-10T19:53:05.242Z,4.03
2018-05-10T19:55:33.193Z,4.50
2018-05-10T19:58:00.522Z,4.40
2018-05-10T20:00:28.412Z,3.93
2018-05-10T20:02:57.412Z,4.43
2018-05-10T20:05:27.942Z,4.50
2018-05-10T20:08:00.294Z,4.70
2018-05-10T20:10:30.472Z,6.20
2018-05-10T20:12:58.113Z,5.97
2018-05-10T20:15:26.562Z,4.53
2018-05-10T20:17:57.812Z,6.53
2018-05-10T20:20:27.022Z,5.20
2018-05-10T20:22:55.346Z,4.53
2018-05-10T20:25:24.652Z,5.67
2018-05-10T20:27:52.792Z,5.17
2018-05-10T20:30:20.582Z,6.73
2018-05-10T20:32:49.442Z,6.03
2018-05-10T20:35:18.732Z,7.23
2018-05-10T20:37:48.613Z,6.20
2018-05-10T20:40:16.583Z,6.53
2018-05-10T20:42:46.722Z,6.40
2018-05-10T20:45:15.622Z,7.03
2018-05-10T20:47:43.882Z,7.13
2018-05-10T20:50:18.292Z,7.43
2018-05-10T20:52:48.622Z,8.93
2018-05-10T20:55:18.012Z,8.37
2018-05-10T20:57:46.393Z,8.33
2018-05-10T21:00:14.362Z,8.43
2018-05-10T21:02:42.602Z,8.07
2018-05-10T21:05:10.042Z,8.20
2018-05-10T21:07:40.051Z,8.43
2018-05-10T21:10:07.952Z,10.17
2018-05-10T21:12:45.121Z,8.80
2018-05-10T21:15:12.791Z,8.07
2018-05-10T21:17:41.531Z,9.20
2018-05-10T21:20:09.451Z,8.57
2018-05-10T21:22:36.982Z,9.17
2018-05-10T21:25:05.664Z,8.03
2018-05-10T21:27:33.601Z,8.77
2018-05-10T21:30:03.471Z,8.03
2018-05-10T21:32:31.072Z,8.20
2018-05-10T21:34:58.684Z,8.73
2018-05-10T21:37:26.432Z,9.57
2018-05-10T21:39:55.451Z,9.83
2018-05-10T21:42:26.905Z,10.23
2018-05-10T21:44:54.362Z,9.47
2018-05-10T21:47:22.392Z,9.47
2018-05-10T21:50:04.682Z,8.77
2018-05-10T21:52:33.217Z,8.70
2018-05-10T21:55:00.908Z,9.23
2018-05-10T21:57:29.241Z,9.27
2018-05-10T21:59:56.631Z,8.73
2018-05-10T22:02:24.221Z,7.80
2018-05-10T22:04:51.594Z,7.23
2018-05-10T22:07:19.181Z,7.00
2018-05-10T22:09:46.652Z,6.87
2018-05-10T22:12:14.932Z,6.07
2018-05-10T22:14:42.483Z,5.93
2018-05-10T22:17:10.193Z,6.23
2018-05-10T22:19:37.742Z,5.30
2018-05-10T22:22:06.421Z,6.17
2018-05-10T22:24:34.626Z,5.93
2018-05-10T22:27:04.703Z,5.87
2018-05-10T22:29:32.702Z,5.87
2018-05-10T22:32:00.632Z,5.80
2018-05-10T22:34:28.732Z,5.80
2018-05-10T22:36:56.911Z,5.33
2018-05-10T22:39:24.441Z,6.10
2018-05-10T22:41:51.872Z,5.60
2018-05-10T22:44:19.365Z,6.10
2018-05-10T22:46:46.711Z,8.87
2018-05-10T22:49:14.504Z,5.40
2018-05-10T22:51:42.002Z,5.60
2018-05-10T22:54:09.711Z,6.40
2018-05-10T22:56:37.282Z,5.17
2018-05-10T22:59:05.331Z,5.47
2018-05-10T23:01:35.072Z,6.03
2018-05-10T23:04:03.441Z,6.70
2018-05-10T23:06:32.257Z,5.23
2018-05-10T23:08:59.781Z,5.90
2018-05-10T23:11:29.361Z,5.17
2018-05-10T23:13:56.922Z,5.93
2018-05-10T23:16:27.180Z,5.73
2018-05-10T23:18:57.722Z,5.97
2018-05-10T23:21:28.171Z,5.73
2018-05-10T23:23:55.761Z,5.80
2018-05-10T23:26:24.551Z,5.67
2018-05-10T23:28:53.352Z,6.00
2018-05-10T23:31:22.721Z,6.70
2018-05-10T23:33:50.181Z,6.37
2018-05-10T23:36:19.321Z,5.43
2018-05-10T23:38:46.845Z,6.40
2018-05-10T23:41:14.441Z,6.07
2018-05-10T23:43:47.281Z,5.80
2018-05-10T23:46:14.641Z,6.30
2018-05-10T23:48:42.141Z,5.73
2018-05-10T23:51:09.265Z,6.00
2018-05-10T23:53:38.183Z,5.93
2018-05-10T23:56:05.512Z,5.93
2018-05-10T23:58:33.322Z,6.43
